sensor_id;sensor_type;location;lat;lon;timestamp;P1;durP1;ratioP1;P2;durP2;ratioP2
43527;SDS011;52359;42.658;23.320;2023-09-19T00:00:36;6.70;;;3.95;;
43527;SDS011;52359;42.658;23.320;2023-09-19T00:03:03;7.78;;;4.68;;
43527;SDS011;52359;42.658;23.320;2023-09-19T00:05:33;5.65;;;4.55;;
43527;SDS011;52359;42.658;23.320;2023-09-19T00:08:01;7.68;;;4.88;;
43527;SDS011;52359;42.658;23.320;2023-09-19T00:10:30;8.65;;;4.43;;
43527;SDS011;52359;42.658;23.320;2023-09-19T00:13:00;10.40;;;4.55;;
43527;SDS011;52359;42.658;23.320;2023-09-19T00:15:30;5.88;;;4.82;;
43527;SDS011;52359;42.658;23.320;2023-09-19T00:17:58;9.55;;;4.53;;
43527;SDS011;52359;42.658;23.320;2023-09-19T00:20:24;5.57;;;4.10;;
43527;SDS011;52359;42.658;23.320;2023-09-19T00:22:50;4.22;;;3.72;;
43527;SDS011;52359;42.658;23.320;2023-09-19T00:25:19;7.72;;;4.45;;
43527;SDS011;52359;42.658;23.320;2023-09-19T00:27:45;5.32;;;4.15;;
43527;SDS011;52359;42.658;23.320;2023-09-19T00:30:14;4.80;;;4.00;;
43527;SDS011;52359;42.658;23.320;2023-09-19T00:32:44;5.63;;;4.28;;
43527;SDS011;52359;42.658;23.320;2023-09-19T00:35:12;4.78;;;3.38;;
43527;SDS011;52359;42.658;23.320;2023-09-19T00:37:40;10.02;;;4.75;;
43527;SDS011;52359;42.658;23.320;2023-09-19T00:40:07;7.78;;;3.88;;
43527;SDS011;52359;42.658;23.320;2023-09-19T00:42:44;6.70;;;4.05;;
43527;SDS011;52359;42.658;23.320;2023-09-19T00:45:11;7.40;;;3.75;;
43527;SDS011;52359;42.658;23.320;2023-09-19T00:47:41;8.93;;;4.20;;
43527;SDS011;52359;42.658;23.320;2023-09-19T00:50:09;6.57;;;4.50;;
43527;SDS011;52359;42.658;23.320;2023-09-19T00:52:38;10.57;;;4.35;;
43527;SDS011;52359;42.658;23.320;2023-09-19T00:55:06;14.02;;;4.78;;
43527;SDS011;52359;42.658;23.320;2023-09-19T00:57:33;6.88;;;3.92;;
43527;SDS011;52359;42.658;23.320;2023-09-19T01:00:02;4.05;;;3.55;;
43527;SDS011;52359;42.658;23.320;2023-09-19T01:02:33;4.55;;;3.67;;
43527;SDS011;52359;42.658;23.320;2023-09-19T01:04:59;11.07;;;4.80;;
43527;SDS011;52359;42.658;23.320;2023-09-19T01:07:28;9.52;;;4.10;;
43527;SDS011;52359;42.658;23.320;2023-09-19T01:09:56;8.93;;;3.67;;
43527;SDS011;52359;42.658;23.320;2023-09-19T01:12:28;10.45;;;4.15;;
43527;SDS011;52359;42.658;23.320;2023-09-19T01:17:44;4.78;;;4.13;;
43527;SDS011;52359;42.658;23.320;2023-09-19T01:23:12;7.63;;;4.43;;
43527;SDS011;52359;42.658;23.320;2023-09-19T01:26:09;7.03;;;4.28;;
43527;SDS011;52359;42.658;23.320;2023-09-19T01:31:31;4.93;;;4.22;;
43527;SDS011;52359;42.658;23.320;2023-09-19T01:34:01;7.65;;;4.07;;
43527;SDS011;52359;42.658;23.320;2023-09-19T01:36:32;6.00;;;4.15;;
43527;SDS011;52359;42.658;23.320;2023-09-19T01:39:04;6.70;;;3.97;;
43527;SDS011;52359;42.658;23.320;2023-09-19T01:41:51;6.10;;;3.92;;
43527;SDS011;52359;42.658;23.320;2023-09-19T01:44:19;6.72;;;4.15;;
43527;SDS011;52359;42.658;23.320;2023-09-19T01:46:48;5.85;;;4.18;;
43527;SDS011;52359;42.658;23.320;2023-09-19T01:49:33;4.75;;;4.35;;
43527;SDS011;52359;42.658;23.320;2023-09-19T01:52:14;6.47;;;5.03;;
43527;SDS011;52359;42.658;23.320;2023-09-19T01:54:51;9.43;;;5.70;;
43527;SDS011;52359;42.658;23.320;2023-09-19T01:57:27;9.05;;;6.05;;
43527;SDS011;52359;42.658;23.320;2023-09-19T02:00:02;8.77;;;5.97;;
43527;SDS011;52359;42.658;23.320;2023-09-19T02:02:34;7.10;;;5.32;;
43527;SDS011;52359;42.658;23.320;2023-09-19T02:07:31;7.57;;;5.70;;
43527;SDS011;52359;42.658;23.320;2023-09-19T02:09:57;5.95;;;5.32;;
43527;SDS011;52359;42.658;23.320;2023-09-19T02:12:26;8.82;;;5.72;;
43527;SDS011;52359;42.658;23.320;2023-09-19T02:14:52;9.20;;;6.43;;
43527;SDS011;52359;42.658;23.320;2023-09-19T02:17:18;8.40;;;5.00;;
43527;SDS011;52359;42.658;23.320;2023-09-19T02:19:44;13.05;;;6.30;;
43527;SDS011;52359;42.658;23.320;2023-09-19T02:22:10;10.88;;;5.50;;
43527;SDS011;52359;42.658;23.320;2023-09-19T02:24:37;19.92;;;6.15;;
43527;SDS011;52359;42.658;23.320;2023-09-19T02:27:03;10.25;;;5.80;;
43527;SDS011;52359;42.658;23.320;2023-09-19T02:29:29;9.20;;;5.75;;
43527;SDS011;52359;42.658;23.320;2023-09-19T02:31:56;11.18;;;5.60;;
43527;SDS011;52359;42.658;23.320;2023-09-19T02:34:22;8.50;;;5.75;;
43527;SDS011;52359;42.658;23.320;2023-09-19T02:36:50;12.88;;;5.57;;
43527;SDS011;52359;42.658;23.320;2023-09-19T02:39:18;8.85;;;5.93;;
43527;SDS011;52359;42.658;23.320;2023-09-19T02:41:44;10.32;;;6.03;;
43527;SDS011;52359;42.658;23.320;2023-09-19T02:44:11;16.08;;;6.35;;
43527;SDS011;52359;42.658;23.320;2023-09-19T02:46:37;8.70;;;6.30;;
43527;SDS011;52359;42.658;23.320;2023-09-19T02:49:03;8.38;;;5.72;;
43527;SDS011;52359;42.658;23.320;2023-09-19T02:51:32;7.28;;;5.30;;
43527;SDS011;52359;42.658;23.320;2023-09-19T02:53:59;6.47;;;5.60;;
43527;SDS011;52359;42.658;23.320;2023-09-19T02:56:27;9.50;;;5.65;;
43527;SDS011;52359;42.658;23.320;2023-09-19T02:58:54;6.80;;;5.43;;
43527;SDS011;52359;42.658;23.320;2023-09-19T03:01:21;11.05;;;5.53;;
43527;SDS011;52359;42.658;23.320;2023-09-19T03:03:47;11.70;;;6.00;;
43527;SDS011;52359;42.658;23.320;2023-09-19T03:06:13;12.98;;;5.93;;
43527;SDS011;52359;42.658;23.320;2023-09-19T03:08:39;14.80;;;6.28;;
43527;SDS011;52359;42.658;23.320;2023-09-19T03:11:07;11.50;;;5.97;;
43527;SDS011;52359;42.658;23.320;2023-09-19T03:13:36;17.30;;;6.70;;
43527;SDS011;52359;42.658;23.320;2023-09-19T03:16:06;9.57;;;6.43;;
43527;SDS011;52359;42.658;23.320;2023-09-19T03:18:34;18.85;;;7.00;;
43527;SDS011;52359;42.658;23.320;2023-09-19T03:20:59;19.30;;;6.80;;
43527;SDS011;52359;42.658;23.320;2023-09-19T03:23:26;12.52;;;7.43;;
43527;SDS011;52359;42.658;23.320;2023-09-19T03:25:52;17.80;;;7.55;;
43527;SDS011;52359;42.658;23.320;2023-09-19T03:28:19;9.48;;;6.85;;
43527;SDS011;52359;42.658;23.320;2023-09-19T03:30:46;17.02;;;7.07;;
43527;SDS011;52359;42.658;23.320;2023-09-19T03:33:22;14.40;;;6.75;;
43527;SDS011;52359;42.658;23.320;2023-09-19T03:35:52;14.60;;;6.60;;
43527;SDS011;52359;42.658;23.320;2023-09-19T03:38:18;10.27;;;5.80;;
43527;SDS011;52359;42.658;23.320;2023-09-19T03:40:44;14.57;;;6.55;;
43527;SDS011;52359;42.658;23.320;2023-09-19T03:43:10;8.60;;;6.82;;
43527;SDS011;52359;42.658;23.320;2023-09-19T03:45:36;10.07;;;5.95;;
43527;SDS011;52359;42.658;23.320;2023-09-19T03:48:08;20.55;;;6.70;;
43527;SDS011;52359;42.658;23.320;2023-09-19T03:50:34;22.60;;;6.75;;
43527;SDS011;52359;42.658;23.320;2023-09-19T03:53:00;17.25;;;6.82;;
43527;SDS011;52359;42.658;23.320;2023-09-19T03:55:25;12.10;;;6.57;;
43527;SDS011;52359;42.658;23.320;2023-09-19T03:57:52;9.95;;;6.43;;
43527;SDS011;52359;42.658;23.320;2023-09-19T04:00:18;9.43;;;6.50;;
43527;SDS011;52359;42.658;23.320;2023-09-19T04:02:47;10.82;;;6.75;;
43527;SDS011;52359;42.658;23.320;2023-09-19T04:05:13;11.45;;;6.60;;
43527;SDS011;52359;42.658;23.320;2023-09-19T04:07:38;10.32;;;6.78;;
43527;SDS011;52359;42.658;23.320;2023-09-19T04:10:04;9.80;;;6.57;;
43527;SDS011;52359;42.658;23.320;2023-09-19T04:12:33;10.05;;;6.35;;
43527;SDS011;52359;42.658;23.320;2023-09-19T04:14:59;11.55;;;6.55;;
43527;SDS011;52359;42.658;23.320;2023-09-19T04:17:25;13.07;;;6.43;;
43527;SDS011;52359;42.658;23.320;2023-09-19T04:19:51;15.73;;;7.25;;
43527;SDS011;52359;42.658;23.320;2023-09-19T04:22:18;22.05;;;8.20;;
43527;SDS011;52359;42.658;23.320;2023-09-19T04:24:44;9.32;;;6.43;;
43527;SDS011;52359;42.658;23.320;2023-09-19T04:27:10;14.43;;;7.28;;
43527;SDS011;52359;42.658;23.320;2023-09-19T04:29:39;13.98;;;7.10;;
43527;SDS011;52359;42.658;23.320;2023-09-19T04:32:06;13.35;;;7.60;;
43527;SDS011;52359;42.658;23.320;2023-09-19T04:34:35;14.85;;;7.60;;
43527;SDS011;52359;42.658;23.320;2023-09-19T04:37:03;15.23;;;7.43;;
43527;SDS011;52359;42.658;23.320;2023-09-19T04:39:29;21.98;;;8.70;;
43527;SDS011;52359;42.658;23.320;2023-09-19T04:41:55;20.23;;;7.65;;
43527;SDS011;52359;42.658;23.320;2023-09-19T04:44:22;19.75;;;8.75;;
43527;SDS011;52359;42.658;23.320;2023-09-19T04:46:49;17.85;;;9.43;;
43527;SDS011;52359;42.658;23.320;2023-09-19T04:49:15;33.45;;;9.05;;
43527;SDS011;52359;42.658;23.320;2023-09-19T04:51:42;21.63;;;7.28;;
43527;SDS011;52359;42.658;23.320;2023-09-19T04:54:08;45.65;;;10.10;;
43527;SDS011;52359;42.658;23.320;2023-09-19T04:56:34;40.75;;;10.30;;
43527;SDS011;52359;42.658;23.320;2023-09-19T04:59:00;33.42;;;8.55;;
43527;SDS011;52359;42.658;23.320;2023-09-19T05:01:26;36.58;;;8.65;;
43527;SDS011;52359;42.658;23.320;2023-09-19T05:03:52;25.13;;;8.60;;
43527;SDS011;52359;42.658;23.320;2023-09-19T05:06:19;34.97;;;16.10;;
43527;SDS011;52359;42.658;23.320;2023-09-19T05:08:48;60.33;;;35.17;;
43527;SDS011;52359;42.658;23.320;2023-09-19T05:11:17;43.15;;;22.02;;
43527;SDS011;52359;42.658;23.320;2023-09-19T05:13:43;18.58;;;9.25;;
43527;SDS011;52359;42.658;23.320;2023-09-19T05:16:09;17.00;;;8.13;;
43527;SDS011;52359;42.658;23.320;2023-09-19T05:18:35;16.30;;;8.07;;
43527;SDS011;52359;42.658;23.320;2023-09-19T05:21:02;13.57;;;7.18;;
43527;SDS011;52359;42.658;23.320;2023-09-19T05:23:28;21.33;;;8.27;;
43527;SDS011;52359;42.658;23.320;2023-09-19T05:25:55;18.30;;;7.72;;
43527;SDS011;52359;42.658;23.320;2023-09-19T05:28:23;14.30;;;7.40;;
43527;SDS011;52359;42.658;23.320;2023-09-19T05:30:49;17.80;;;7.63;;
43527;SDS011;52359;42.658;23.320;2023-09-19T05:33:16;13.18;;;8.38;;
43527;SDS011;52359;42.658;23.320;2023-09-19T05:35:43;13.93;;;7.95;;
43527;SDS011;52359;42.658;23.320;2023-09-19T05:38:12;18.73;;;7.00;;
43527;SDS011;52359;42.658;23.320;2023-09-19T05:40:38;26.50;;;6.28;;
43527;SDS011;52359;42.658;23.320;2023-09-19T05:43:08;18.48;;;7.68;;
43527;SDS011;52359;42.658;23.320;2023-09-19T05:45:34;21.75;;;6.60;;
43527;SDS011;52359;42.658;23.320;2023-09-19T05:48:11;21.98;;;7.70;;
43527;SDS011;52359;42.658;23.320;2023-09-19T05:50:38;13.45;;;7.07;;
43527;SDS011;52359;42.658;23.320;2023-09-19T05:53:04;12.52;;;6.32;;
43527;SDS011;52359;42.658;23.320;2023-09-19T05:55:31;14.07;;;6.55;;
43527;SDS011;52359;42.658;23.320;2023-09-19T05:57:57;15.68;;;6.80;;
43527;SDS011;52359;42.658;23.320;2023-09-19T06:00:24;14.55;;;6.25;;
43527;SDS011;52359;42.658;23.320;2023-09-19T06:02:55;12.27;;;7.03;;
43527;SDS011;52359;42.658;23.320;2023-09-19T06:05:22;15.70;;;6.78;;
43527;SDS011;52359;42.658;23.320;2023-09-19T06:07:48;14.30;;;6.25;;
43527;SDS011;52359;42.658;23.320;2023-09-19T06:10:15;11.65;;;5.80;;
43527;SDS011;52359;42.658;23.320;2023-09-19T06:12:42;21.35;;;6.32;;
43527;SDS011;52359;42.658;23.320;2023-09-19T06:15:14;7.80;;;5.18;;
43527;SDS011;52359;42.658;23.320;2023-09-19T06:17:50;12.18;;;5.22;;
43527;SDS011;52359;42.658;23.320;2023-09-19T06:20:17;7.03;;;4.57;;
43527;SDS011;52359;42.658;23.320;2023-09-19T06:22:45;7.82;;;5.30;;
43527;SDS011;52359;42.658;23.320;2023-09-19T06:25:11;11.52;;;4.93;;
43527;SDS011;52359;42.658;23.320;2023-09-19T06:27:40;26.95;;;13.80;;
43527;SDS011;52359;42.658;23.320;2023-09-19T06:30:08;8.68;;;5.63;;
43527;SDS011;52359;42.658;23.320;2023-09-19T06:32:34;10.93;;;4.82;;
43527;SDS011;52359;42.658;23.320;2023-09-19T06:35:00;14.00;;;6.40;;
43527;SDS011;52359;42.658;23.320;2023-09-19T06:37:28;7.85;;;4.57;;
43527;SDS011;52359;42.658;23.320;2023-09-19T06:39:54;10.88;;;5.32;;
43527;SDS011;52359;42.658;23.320;2023-09-19T06:42:20;8.25;;;5.53;;
43527;SDS011;52359;42.658;23.320;2023-09-19T06:44:47;7.95;;;4.53;;
43527;SDS011;52359;42.658;23.320;2023-09-19T06:47:13;7.82;;;4.72;;
43527;SDS011;52359;42.658;23.320;2023-09-19T06:49:41;13.20;;;4.35;;
43527;SDS011;52359;42.658;23.320;2023-09-19T06:52:09;8.30;;;4.32;;
43527;SDS011;52359;42.658;23.320;2023-09-19T06:54:35;6.88;;;4.15;;
43527;SDS011;52359;42.658;23.320;2023-09-19T06:57:02;14.65;;;4.47;;
43527;SDS011;52359;42.658;23.320;2023-09-19T06:59:28;12.60;;;4.70;;
43527;SDS011;52359;42.658;23.320;2023-09-19T07:01:54;13.57;;;5.18;;
43527;SDS011;52359;42.658;23.320;2023-09-19T07:04:20;8.75;;;4.72;;
43527;SDS011;52359;42.658;23.320;2023-09-19T07:06:52;7.97;;;4.85;;
43527;SDS011;52359;42.658;23.320;2023-09-19T07:09:17;11.18;;;4.72;;
43527;SDS011;52359;42.658;23.320;2023-09-19T07:11:47;9.98;;;5.32;;
43527;SDS011;52359;42.658;23.320;2023-09-19T07:14:13;12.63;;;4.43;;
43527;SDS011;52359;42.658;23.320;2023-09-19T07:16:38;8.10;;;4.45;;
43527;SDS011;52359;42.658;23.320;2023-09-19T07:19:07;6.85;;;4.93;;
43527;SDS011;52359;42.658;23.320;2023-09-19T07:21:33;6.68;;;4.47;;
43527;SDS011;52359;42.658;23.320;2023-09-19T07:24:00;10.82;;;4.82;;
43527;SDS011;52359;42.658;23.320;2023-09-19T07:26:28;9.45;;;5.05;;
43527;SDS011;52359;42.658;23.320;2023-09-19T07:28:54;7.50;;;4.65;;
43527;SDS011;52359;42.658;23.320;2023-09-19T07:31:21;9.05;;;3.80;;
43527;SDS011;52359;42.658;23.320;2023-09-19T07:33:47;11.27;;;4.70;;
43527;SDS011;52359;42.658;23.320;2023-09-19T07:36:14;7.55;;;4.43;;
43527;SDS011;52359;42.658;23.320;2023-09-19T07:38:40;14.32;;;4.68;;
43527;SDS011;52359;42.658;23.320;2023-09-19T07:41:06;11.57;;;4.70;;
43527;SDS011;52359;42.658;23.320;2023-09-19T07:43:33;16.88;;;5.35;;
43527;SDS011;52359;42.658;23.320;2023-09-19T07:46:06;14.75;;;9.35;;
43527;SDS011;52359;42.658;23.320;2023-09-19T07:48:34;15.95;;;4.97;;
43527;SDS011;52359;42.658;23.320;2023-09-19T07:51:08;8.10;;;4.68;;
43527;SDS011;52359;42.658;23.320;2023-09-19T07:53:34;9.95;;;4.55;;
43527;SDS011;52359;42.658;23.320;2023-09-19T07:56:04;7.68;;;4.53;;
43527;SDS011;52359;42.658;23.320;2023-09-19T07:58:31;6.32;;;4.35;;
43527;SDS011;52359;42.658;23.320;2023-09-19T08:01:08;6.63;;;4.28;;
43527;SDS011;52359;42.658;23.320;2023-09-19T08:03:35;16.30;;;5.00;;
43527;SDS011;52359;42.658;23.320;2023-09-19T08:06:06;8.38;;;5.05;;
43527;SDS011;52359;42.658;23.320;2023-09-19T08:08:33;9.60;;;4.32;;
43527;SDS011;52359;42.658;23.320;2023-09-19T08:11:05;10.75;;;5.03;;
43527;SDS011;52359;42.658;23.320;2023-09-19T08:13:36;6.13;;;4.57;;
43527;SDS011;52359;42.658;23.320;2023-09-19T08:16:05;12.15;;;4.55;;
43527;SDS011;52359;42.658;23.320;2023-09-19T08:18:31;6.00;;;4.68;;
43527;SDS011;52359;42.658;23.320;2023-09-19T08:20:57;10.73;;;4.60;;
43527;SDS011;52359;42.658;23.320;2023-09-19T08:23:25;8.50;;;4.47;;
43527;SDS011;52359;42.658;23.320;2023-09-19T08:25:55;14.07;;;5.05;;
43527;SDS011;52359;42.658;23.320;2023-09-19T08:28:22;9.50;;;5.18;;
43527;SDS011;52359;42.658;23.320;2023-09-19T08:30:49;10.38;;;5.13;;
43527;SDS011;52359;42.658;23.320;2023-09-19T08:33:16;12.07;;;4.95;;
43527;SDS011;52359;42.658;23.320;2023-09-19T08:35:42;12.10;;;4.97;;
43527;SDS011;52359;42.658;23.320;2023-09-19T08:38:09;20.95;;;5.13;;
43527;SDS011;52359;42.658;23.320;2023-09-19T08:40:38;11.63;;;5.68;;
43527;SDS011;52359;42.658;23.320;2023-09-19T08:43:07;17.13;;;5.75;;
43527;SDS011;52359;42.658;23.320;2023-09-19T08:45:33;13.27;;;5.28;;
43527;SDS011;52359;42.658;23.320;2023-09-19T08:48:12;8.55;;;5.22;;
43527;SDS011;52359;42.658;23.320;2023-09-19T08:50:48;32.97;;;5.87;;
43527;SDS011;52359;42.658;23.320;2023-09-19T08:53:26;14.25;;;5.38;;
43527;SDS011;52359;42.658;23.320;2023-09-19T08:55:53;21.65;;;5.90;;
43527;SDS011;52359;42.658;23.320;2023-09-19T08:58:21;11.68;;;5.25;;
43527;SDS011;52359;42.658;23.320;2023-09-19T09:00:53;12.03;;;4.73;;
43527;SDS011;52359;42.658;23.320;2023-09-19T09:03:20;10.57;;;5.32;;
43527;SDS011;52359;42.658;23.320;2023-09-19T09:05:46;11.65;;;5.95;;
43527;SDS011;52359;42.658;23.320;2023-09-19T09:08:15;10.65;;;5.55;;
43527;SDS011;52359;42.658;23.320;2023-09-19T09:10:43;15.55;;;5.82;;
43527;SDS011;52359;42.658;23.320;2023-09-19T09:13:09;9.50;;;5.13;;
43527;SDS011;52359;42.658;23.320;2023-09-19T09:15:39;9.48;;;5.65;;
43527;SDS011;52359;42.658;23.320;2023-09-19T09:18:06;15.88;;;5.32;;
43527;SDS011;52359;42.658;23.320;2023-09-19T09:20:33;12.73;;;6.63;;
43527;SDS011;52359;42.658;23.320;2023-09-19T09:22:59;12.77;;;6.43;;
43527;SDS011;52359;42.658;23.320;2023-09-19T09:28:34;16.65;;;6.28;;
43527;SDS011;52359;42.658;23.320;2023-09-19T09:31:02;14.48;;;6.03;;
43527;SDS011;52359;42.658;23.320;2023-09-19T09:33:33;9.93;;;5.57;;
43527;SDS011;52359;42.658;23.320;2023-09-19T09:35:59;11.95;;;5.60;;
43527;SDS011;52359;42.658;23.320;2023-09-19T09:38:28;12.07;;;5.82;;
43527;SDS011;52359;42.658;23.320;2023-09-19T09:40:57;19.00;;;6.43;;
43527;SDS011;52359;42.658;23.320;2023-09-19T09:43:26;12.85;;;5.80;;
43527;SDS011;52359;42.658;23.320;2023-09-19T09:46:12;13.07;;;5.45;;
43527;SDS011;52359;42.658;23.320;2023-09-19T09:48:48;16.90;;;6.22;;
43527;SDS011;52359;42.658;23.320;2023-09-19T09:51:34;16.08;;;6.18;;
43527;SDS011;52359;42.658;23.320;2023-09-19T09:54:12;21.48;;;5.22;;
43527;SDS011;52359;42.658;23.320;2023-09-19T09:56:58;9.77;;;5.35;;
43527;SDS011;52359;42.658;23.320;2023-09-19T10:02:11;13.45;;;5.32;;
43527;SDS011;52359;42.658;23.320;2023-09-19T10:04:38;16.38;;;6.13;;
43527;SDS011;52359;42.658;23.320;2023-09-19T10:07:29;11.52;;;5.75;;
43527;SDS011;52359;42.658;23.320;2023-09-19T10:10:04;10.40;;;5.78;;
43527;SDS011;52359;42.658;23.320;2023-09-19T10:12:50;14.95;;;5.40;;
43527;SDS011;52359;42.658;23.320;2023-09-19T10:15:20;15.73;;;5.30;;
43527;SDS011;52359;42.658;23.320;2023-09-19T10:17:49;6.97;;;4.75;;
43527;SDS011;52359;42.658;23.320;2023-09-19T10:20:21;13.32;;;4.60;;
43527;SDS011;52359;42.658;23.320;2023-09-19T10:23:09;11.70;;;4.93;;
43527;SDS011;52359;42.658;23.320;2023-09-19T10:25:43;9.25;;;5.07;;
43527;SDS011;52359;42.658;23.320;2023-09-19T10:28:12;9.75;;;5.38;;
43527;SDS011;52359;42.658;23.320;2023-09-19T10:30:46;9.32;;;4.55;;
43527;SDS011;52359;42.658;23.320;2023-09-19T10:33:15;8.57;;;5.32;;
43527;SDS011;52359;42.658;23.320;2023-09-19T10:35:43;6.32;;;4.38;;
43527;SDS011;52359;42.658;23.320;2023-09-19T10:38:09;11.80;;;4.75;;
43527;SDS011;52359;42.658;23.320;2023-09-19T10:40:36;7.88;;;4.75;;
43527;SDS011;52359;42.658;23.320;2023-09-19T10:43:05;13.60;;;5.13;;
43527;SDS011;52359;42.658;23.320;2023-09-19T10:45:32;19.48;;;5.32;;
43527;SDS011;52359;42.658;23.320;2023-09-19T10:47:59;12.43;;;4.95;;
43527;SDS011;52359;42.658;23.320;2023-09-19T10:50:28;7.97;;;4.88;;
43527;SDS011;52359;42.658;23.320;2023-09-19T10:52:56;7.07;;;5.13;;
43527;SDS011;52359;42.658;23.320;2023-09-19T10:55:29;11.10;;;6.32;;
43527;SDS011;52359;42.658;23.320;2023-09-19T10:57:56;10.73;;;5.50;;
43527;SDS011;52359;42.658;23.320;2023-09-19T11:00:51;11.68;;;5.13;;
43527;SDS011;52359;42.658;23.320;2023-09-19T11:03:21;8.65;;;5.13;;
43527;SDS011;52359;42.658;23.320;2023-09-19T11:11:49;17.17;;;5.45;;
43527;SDS011;52359;42.658;23.320;2023-09-19T11:17:49;17.40;;;5.13;;
43527;SDS011;52359;42.658;23.320;2023-09-19T11:30:43;6.85;;;4.22;;
43527;SDS011;52359;42.658;23.320;2023-09-19T11:33:27;14.15;;;4.68;;
43527;SDS011;52359;42.658;23.320;2023-09-19T11:36:09;18.90;;;4.60;;
43527;SDS011;52359;42.658;23.320;2023-09-19T11:43:52;6.88;;;4.82;;
43527;SDS011;52359;42.658;23.320;2023-09-19T11:46:25;11.35;;;4.65;;
43527;SDS011;52359;42.658;23.320;2023-09-19T11:48:53;6.90;;;4.80;;
43527;SDS011;52359;42.658;23.320;2023-09-19T11:51:20;12.48;;;5.35;;
43527;SDS011;52359;42.658;23.320;2023-09-19T11:53:48;13.30;;;5.13;;
43527;SDS011;52359;42.658;23.320;2023-09-19T11:56:15;13.85;;;5.40;;
43527;SDS011;52359;42.658;23.320;2023-09-19T11:58:43;14.82;;;5.22;;
43527;SDS011;52359;42.658;23.320;2023-09-19T12:01:12;12.52;;;4.75;;
43527;SDS011;52359;42.658;23.320;2023-09-19T12:03:40;13.07;;;5.07;;
43527;SDS011;52359;42.658;23.320;2023-09-19T12:06:13;15.95;;;4.50;;
43527;SDS011;52359;42.658;23.320;2023-09-19T12:08:40;21.20;;;5.40;;
43527;SDS011;52359;42.658;23.320;2023-09-19T12:11:11;23.88;;;4.65;;
43527;SDS011;52359;42.658;23.320;2023-09-19T12:13:44;30.30;;;5.05;;
43527;SDS011;52359;42.658;23.320;2023-09-19T12:16:18;13.52;;;5.05;;
43527;SDS011;52359;42.658;23.320;2023-09-19T12:18:48;15.25;;;4.18;;
43527;SDS011;52359;42.658;23.320;2023-09-19T12:24:04;11.27;;;4.43;;
43527;SDS011;52359;42.658;23.320;2023-09-19T12:26:40;7.75;;;4.10;;
43527;SDS011;52359;42.658;23.320;2023-09-19T12:29:16;14.40;;;3.83;;
43527;SDS011;52359;42.658;23.320;2023-09-19T12:34:28;7.45;;;5.15;;
43527;SDS011;52359;42.658;23.320;2023-09-19T12:39:37;8.05;;;4.00;;
43527;SDS011;52359;42.658;23.320;2023-09-19T12:42:03;9.85;;;4.20;;
43527;SDS011;52359;42.658;23.320;2023-09-19T12:44:34;3.65;;;3.30;;
43527;SDS011;52359;42.658;23.320;2023-09-19T12:47:00;4.47;;;4.03;;
43527;SDS011;52359;42.658;23.320;2023-09-19T12:49:26;9.75;;;4.00;;
43527;SDS011;52359;42.658;23.320;2023-09-19T12:51:54;11.32;;;4.38;;
43527;SDS011;52359;42.658;23.320;2023-09-19T12:54:23;7.32;;;4.15;;
43527;SDS011;52359;42.658;23.320;2023-09-19T12:56:50;7.85;;;3.60;;
43527;SDS011;52359;42.658;23.320;2023-09-19T12:59:16;10.07;;;6.80;;
43527;SDS011;52359;42.658;23.320;2023-09-19T13:01:42;7.70;;;4.18;;
43527;SDS011;52359;42.658;23.320;2023-09-19T13:04:21;6.15;;;4.18;;
43527;SDS011;52359;42.658;23.320;2023-09-19T13:06:55;9.25;;;4.32;;
43527;SDS011;52359;42.658;23.320;2023-09-19T13:09:25;8.68;;;4.47;;
43527;SDS011;52359;42.658;23.320;2023-09-19T13:12:04;6.78;;;4.00;;
43527;SDS011;52359;42.658;23.320;2023-09-19T13:15:06;10.45;;;4.13;;
43527;SDS011;52359;42.658;23.320;2023-09-19T13:17:43;14.50;;;4.55;;
43527;SDS011;52359;42.658;23.320;2023-09-19T13:20:30;12.13;;;4.07;;
43527;SDS011;52359;42.658;23.320;2023-09-19T13:23:04;12.13;;;4.43;;
43527;SDS011;52359;42.658;23.320;2023-09-19T13:25:35;12.93;;;4.23;;
43527;SDS011;52359;42.658;23.320;2023-09-19T13:28:01;7.88;;;4.25;;
43527;SDS011;52359;42.658;23.320;2023-09-19T13:30:30;5.75;;;4.20;;
43527;SDS011;52359;42.658;23.320;2023-09-19T13:33:09;5.00;;;3.80;;
43527;SDS011;52359;42.658;23.320;2023-09-19T13:35:36;8.10;;;3.92;;
43527;SDS011;52359;42.658;23.320;2023-09-19T13:38:03;9.52;;;4.28;;
43527;SDS011;52359;42.658;23.320;2023-09-19T13:40:31;5.82;;;4.00;;
43527;SDS011;52359;42.658;23.320;2023-09-19T13:43:00;12.77;;;4.35;;
43527;SDS011;52359;42.658;23.320;2023-09-19T13:45:26;6.88;;;3.92;;
43527;SDS011;52359;42.658;23.320;2023-09-19T13:47:55;7.13;;;3.85;;
43527;SDS011;52359;42.658;23.320;2023-09-19T13:50:21;7.63;;;4.18;;
43527;SDS011;52359;42.658;23.320;2023-09-19T13:52:54;13.00;;;9.65;;
43527;SDS011;52359;42.658;23.320;2023-09-19T13:55:20;9.32;;;4.28;;
43527;SDS011;52359;42.658;23.320;2023-09-19T13:57:49;8.70;;;4.35;;
43527;SDS011;52359;42.658;23.320;2023-09-19T14:00:17;13.20;;;4.03;;
43527;SDS011;52359;42.658;23.320;2023-09-19T14:02:44;7.65;;;3.90;;
43527;SDS011;52359;42.658;23.320;2023-09-19T14:05:11;20.98;;;3.97;;
43527;SDS011;52359;42.658;23.320;2023-09-19T14:07:40;6.93;;;4.68;;
43527;SDS011;52359;42.658;23.320;2023-09-19T14:10:06;7.28;;;5.43;;
43527;SDS011;52359;42.658;23.320;2023-09-19T14:12:33;15.27;;;5.45;;
43527;SDS011;52359;42.658;23.320;2023-09-19T14:15:03;9.02;;;5.72;;
43527;SDS011;52359;42.658;23.320;2023-09-19T14:17:29;6.13;;;4.72;;
43527;SDS011;52359;42.658;23.320;2023-09-19T14:19:55;9.00;;;5.07;;
43527;SDS011;52359;42.658;23.320;2023-09-19T14:22:21;17.45;;;6.20;;
43527;SDS011;52359;42.658;23.320;2023-09-19T14:24:47;14.60;;;7.25;;
43527;SDS011;52359;42.658;23.320;2023-09-19T14:27:13;11.63;;;5.00;;
43527;SDS011;52359;42.658;23.320;2023-09-19T14:29:39;5.75;;;5.05;;
43527;SDS011;52359;42.658;23.320;2023-09-19T14:32:06;8.15;;;5.00;;
43527;SDS011;52359;42.658;23.320;2023-09-19T14:34:32;8.43;;;5.88;;
43527;SDS011;52359;42.658;23.320;2023-09-19T14:36:59;12.18;;;7.70;;
43527;SDS011;52359;42.658;23.320;2023-09-19T14:39:25;14.82;;;6.82;;
43527;SDS011;52359;42.658;23.320;2023-09-19T14:41:52;18.05;;;9.55;;
43527;SDS011;52359;42.658;23.320;2023-09-19T14:44:18;19.70;;;13.55;;
43527;SDS011;52359;42.658;23.320;2023-09-19T14:46:44;34.17;;;26.02;;
43527;SDS011;52359;42.658;23.320;2023-09-19T14:49:11;34.25;;;23.73;;
43527;SDS011;52359;42.658;23.320;2023-09-19T14:51:37;29.38;;;15.10;;
43527;SDS011;52359;42.658;23.320;2023-09-19T14:54:07;10.10;;;7.63;;
43527;SDS011;52359;42.658;23.320;2023-09-19T14:56:33;12.90;;;7.43;;
43527;SDS011;52359;42.658;23.320;2023-09-19T14:58:59;21.08;;;7.63;;
43527;SDS011;52359;42.658;23.320;2023-09-19T15:01:25;21.20;;;10.07;;
43527;SDS011;52359;42.658;23.320;2023-09-19T15:03:51;8.25;;;5.35;;
43527;SDS011;52359;42.658;23.320;2023-09-19T15:06:19;38.30;;;7.65;;
43527;SDS011;52359;42.658;23.320;2023-09-19T15:08:46;10.75;;;4.85;;
43527;SDS011;52359;42.658;23.320;2023-09-19T15:11:16;16.70;;;5.05;;
43527;SDS011;52359;42.658;23.320;2023-09-19T15:13:42;16.13;;;7.30;;
43527;SDS011;52359;42.658;23.320;2023-09-19T15:16:09;19.38;;;7.05;;
43527;SDS011;52359;42.658;23.320;2023-09-19T15:18:41;22.52;;;6.50;;
43527;SDS011;52359;42.658;23.320;2023-09-19T15:21:09;21.10;;;11.32;;
43527;SDS011;52359;42.658;23.320;2023-09-19T15:23:35;16.23;;;7.03;;
43527;SDS011;52359;42.658;23.320;2023-09-19T15:26:02;15.50;;;6.75;;